createdAt,value
2022-08-01T00:00:28.141Z,12.70
2022-08-01T00:03:00.172Z,12.70
2022-08-01T00:05:32.260Z,12.70
2022-08-01T00:08:04.402Z,12.70
2022-08-01T00:10:36.787Z,12.70
2022-08-01T00:13:14.945Z,12.60
2022-08-01T00:15:53.936Z,12.60
2022-08-01T00:18:26.468Z,12.60
2022-08-01T00:20:58.882Z,12.60
2022-08-01T00:23:30.901Z,12.60
2022-08-01T00:26:03.292Z,12.60
2022-08-01T00:28:35.324Z,12.60
2022-08-01T00:31:09.735Z,12.50
2022-08-01T00:33:41.632Z,12.50
2022-08-01T00:36:13.878Z,12.50
2022-08-01T00:38:45.811Z,12.50
2022-08-01T00:41:20.039Z,12.50
2022-08-01T00:43:55.433Z,12.50
2022-08-01T00:46:27.766Z,12.50
2022-08-01T00:49:00.299Z,12.40
2022-08-01T00:51:32.285Z,12.40
2022-08-01T00:54:04.366Z,12.30
2022-08-01T00:56:38.274Z,12.30
2022-08-01T00:59:12.279Z,12.30
2022-08-01T01:01:46.539Z,12.30
2022-08-01T01:04:21.594Z,12.20
2022-08-01T01:07:18.569Z,12.20
2022-08-01T01:09:53.195Z,12.20
2022-08-01T01:12:28.128Z,12.20
2022-08-01T01:15:11.256Z,12.20
2022-08-01T01:17:57.095Z,12.20
2022-08-01T01:20:33.878Z,12.20
2022-08-01T01:23:14.861Z,12.20
2022-08-01T01:26:11.602Z,12.20
2022-08-01T01:28:52.517Z,12.10
2022-08-01T01:31:29.035Z,12.10
2022-08-01T01:34:03.572Z,12.10
2022-08-01T01:36:37.729Z,12.10
2022-08-01T01:39:10.247Z,12.10
2022-08-01T01:41:44.044Z,12.10
2022-08-01T01:44:17.791Z,12.00
2022-08-01T01:46:53.256Z,12.00
2022-08-01T01:49:27.929Z,12.00
2022-08-01T01:52:03.372Z,12.00
2022-08-01T01:54:41.231Z,11.90
2022-08-01T01:57:14.497Z,11.90
2022-08-01T01:59:47.992Z,11.90
2022-08-01T02:02:21.212Z,11.90
2022-08-01T02:04:57.834Z,11.90
2022-08-01T02:07:30.375Z,11.90
2022-08-01T02:10:04.708Z,11.90
2022-08-01T02:12:40.849Z,11.90
2022-08-01T02:15:14.389Z,11.90
2022-08-01T02:17:50.607Z,12.00
2022-08-01T02:20:25.347Z,12.00
2022-08-01T02:23:11.817Z,12.00
2022-08-01T02:26:09.866Z,12.00
2022-08-01T02:29:13.434Z,11.90
2022-08-01T02:31:48.125Z,11.90
2022-08-01T02:34:22.059Z,12.00
2022-08-01T02:36:55.651Z,12.00
2022-08-01T02:39:29.706Z,12.00
2022-08-01T02:42:06.662Z,12.00
2022-08-01T02:44:42.902Z,12.10
2022-08-01T02:47:17.146Z,12.10
2022-08-01T02:49:53.935Z,12.10
2022-08-01T02:52:30.120Z,12.10
2022-08-01T02:55:03.299Z,12.10
2022-08-01T02:57:51.893Z,12.10
2022-08-01T03:00:28.483Z,12.10
2022-08-01T03:03:04.135Z,12.10
2022-08-01T03:05:37.364Z,12.10
2022-08-01T03:08:11.989Z,12.10
2022-08-01T03:10:47.974Z,12.10
2022-08-01T03:13:22.481Z,12.20
2022-08-01T03:15:56.540Z,12.20
2022-08-01T03:18:29.322Z,12.30
2022-08-01T03:21:02.662Z,12.30
2022-08-01T03:23:38.596Z,12.30
2022-08-01T03:26:11.920Z,12.40
2022-08-01T03:28:47.153Z,12.50
2022-08-01T03:31:21.818Z,12.60
2022-08-01T03:33:56.306Z,12.60
2022-08-01T03:36:29.768Z,12.70
2022-08-01T03:39:05.158Z,12.70
2022-08-01T03:41:46.746Z,12.80
2022-08-01T03:44:24.350Z,12.90
2022-08-01T03:47:05.027Z,13.00
2022-08-01T03:49:42.978Z,13.10
2022-08-01T03:52:15.425Z,13.20
2022-08-01T03:54:50.513Z,13.40
2022-08-01T03:57:36.157Z,13.50
2022-08-01T04:00:10.267Z,13.60
2022-08-01T04:02:48.770Z,13.70
2022-08-01T04:05:20.804Z,13.80
2022-08-01T04:07:56.766Z,13.90
2022-08-01T04:10:29.003Z,14.00
2022-08-01T04:13:00.957Z,14.10
2022-08-01T04:15:32.994Z,14.20
2022-08-01T04:18:04.979Z,14.20
2022-08-01T04:20:39.510Z,14.30
2022-08-01T04:23:12.444Z,14.40
2022-08-01T04:25:46.026Z,14.40
2022-08-01T04:28:18.540Z,14.50
2022-08-01T04:31:01.616Z,14.70
2022-08-01T04:33:37.587Z,14.70
2022-08-01T04:36:13.938Z,14.80
2022-08-01T04:38:49.386Z,14.90
2022-08-01T04:41:22.371Z,14.90
2022-08-01T04:43:55.807Z,15.00
2022-08-01T04:46:29.794Z,15.10
2022-08-01T04:49:06.465Z,15.20
2022-08-01T04:51:52.026Z,15.20
2022-08-01T04:54:25.377Z,15.20
2022-08-01T04:57:00.953Z,15.30
2022-08-01T04:59:45.235Z,15.40
2022-08-01T05:02:19.397Z,15.40
2022-08-01T05:04:53.351Z,15.50
2022-08-01T05:07:25.680Z,15.50
2022-08-01T05:09:57.613Z,15.60
2022-08-01T05:12:32.385Z,15.70
2022-08-01T05:15:05.984Z,15.80
2022-08-01T05:17:37.934Z,15.90
2022-08-01T05:20:12.991Z,15.90
2022-08-01T05:22:44.947Z,15.90
2022-08-01T05:25:20.174Z,16.00
2022-08-01T05:27:52.363Z,16.00
2022-08-01T05:30:28.103Z,16.00
2022-08-01T05:33:00.072Z,16.10
2022-08-01T05:35:48.019Z,16.10
2022-08-01T05:38:25.567Z,16.10
2022-08-01T05:41:02.093Z,16.20
2022-08-01T05:43:36.266Z,16.40
2022-08-01T05:46:08.168Z,16.60
2022-08-01T05:48:40.043Z,16.80
2022-08-01T05:51:11.886Z,16.90
2022-08-01T05:53:43.923Z,17.10
2022-08-01T05:56:18.199Z,17.20
2022-08-01T05:58:51.643Z,17.30
2022-08-01T06:01:23.923Z,17.40
2022-08-01T06:03:55.836Z,17.50
2022-08-01T06:06:29.926Z,17.60
2022-08-01T06:09:01.826Z,17.70
2022-08-01T06:11:34.102Z,17.90
2022-08-01T06:14:06.117Z,18.50
2022-08-01T06:16:37.978Z,19.90
2022-08-01T06:19:09.899Z,21.90
2022-08-01T06:21:46.633Z,23.80
2022-08-01T06:24:18.565Z,25.50
2022-08-01T06:26:53.597Z,27.00
2022-08-01T06:29:25.689Z,28.10
2022-08-01T06:32:00.292Z,29.20
2022-08-01T06:34:32.166Z,29.80
2022-08-01T06:37:06.878Z,30.50
2022-08-01T06:39:38.945Z,31.00
2022-08-01T06:42:11.078Z,31.30
2022-08-01T06:44:43.068Z,32.30
2022-08-01T06:47:14.940Z,32.40
2022-08-01T06:49:46.961Z,31.70
2022-08-01T06:52:20.008Z,30.90
2022-08-01T06:54:52.206Z,30.50
2022-08-01T06:57:24.061Z,30.70
2022-08-01T06:59:56.478Z,30.60
2022-08-01T07:02:31.067Z,30.80
2022-08-01T07:05:05.067Z,31.10
2022-08-01T07:07:37.568Z,31.70
2022-08-01T07:10:10.321Z,32.20
2022-08-01T07:12:42.297Z,32.40
2022-08-01T07:15:14.513Z,32.80
2022-08-01T07:17:46.485Z,33.20
2022-08-01T07:20:21.473Z,32.30
2022-08-01T07:22:53.846Z,31.20
2022-08-01T07:25:28.519Z,29.80
2022-08-01T07:28:00.426Z,28.40
2022-08-01T07:30:34.537Z,27.40
2022-08-01T07:33:09.013Z,26.70
2022-08-01T07:35:41.067Z,26.90
2022-08-01T07:38:17.925Z,26.80
2022-08-01T07:40:49.953Z,26.70
2022-08-01T07:43:22.002Z,26.40
2022-08-01T07:45:54.333Z,26.40
2022-08-01T07:48:26.752Z,26.60
2022-08-01T07:51:01.571Z,26.60
2022-08-01T07:53:33.455Z,25.80
2022-08-01T07:56:08.638Z,26.00
2022-08-01T07:58:40.675Z,26.30
2022-08-01T08:01:12.584Z,26.60
2022-08-01T08:03:44.983Z,26.30
2022-08-01T08:06:19.616Z,26.10
2022-08-01T08:08:51.986Z,25.50
2022-08-01T08:11:23.926Z,25.20
2022-08-01T08:13:56.273Z,25.00
2022-08-01T08:16:30.781Z,24.80
2022-08-01T08:19:02.716Z,24.50
2022-08-01T08:21:39.261Z,24.20
2022-08-01T08:24:26.961Z,24.00
2022-08-01T08:27:01.101Z,23.60
2022-08-01T08:29:35.729Z,23.60
2022-08-01T08:32:08.684Z,23.50
2022-08-01T08:34:40.981Z,23.60
2022-08-01T08:37:13.996Z,24.00
2022-08-01T08:39:46.026Z,24.40
2022-08-01T08:42:19.297Z,24.80
2022-08-01T08:44:51.382Z,25.00
2022-08-01T08:47:30.993Z,24.80
2022-08-01T08:50:04.895Z,24.60
2022-08-01T08:52:39.328Z,24.40
2022-08-01T08:55:12.640Z,24.00
2022-08-01T08:57:45.932Z,23.70
2022-08-01T09:00:17.919Z,23.50
2022-08-01T09:02:56.626Z,23.50
2022-08-01T09:05:39.108Z,23.90
2022-08-01T09:08:11.493Z,24.30
2022-08-01T09:10:45.562Z,24.70
2022-08-01T09:13:19.951Z,24.50
2022-08-01T09:15:55.031Z,24.20
2022-08-01T09:18:28.809Z,24.20
2022-08-01T09:21:15.369Z,24.20
2022-08-01T09:23:54.634Z,24.50
2022-08-01T09:26:35.122Z,24.60
2022-08-01T09:29:10.442Z,24.40
2022-08-01T09:31:47.088Z,24.10
2022-08-01T09:34:28.386Z,23.90
2022-08-01T09:37:05.739Z,23.60
2022-08-01T09:39:44.218Z,23.70
2022-08-01T09:42:36.752Z,23.80
2022-08-01T09:45:09.061Z,24.00
2022-08-01T09:47:50.712Z,24.10
2022-08-01T09:50:22.917Z,24.30
2022-08-01T09:52:57.144Z,24.40
2022-08-01T09:55:31.671Z,24.60
2022-08-01T09:58:06.243Z,24.60
2022-08-01T10:00:46.366Z,24.70
2022-08-01T10:03:21.788Z,24.80
2022-08-01T10:05:58.388Z,24.90
2022-08-01T10:08:47.337Z,25.10
2022-08-01T10:11:19.664Z,25.40
2022-08-01T10:13:51.590Z,25.60
2022-08-01T10:16:27.836Z,25.70
2022-08-01T10:19:02.992Z,25.50
2022-08-01T10:21:57.321Z,24.90
2022-08-01T10:24:30.591Z,24.30
2022-08-01T10:27:09.195Z,23.70
2022-08-01T10:30:05.662Z,23.50
2022-08-01T10:32:43.807Z,23.40
2022-08-01T10:35:37.989Z,23.20
2022-08-01T10:38:15.932Z,23.10
2022-08-01T10:40:53.545Z,23.00
2022-08-01T10:43:25.437Z,23.00
2022-08-01T10:45:57.836Z,23.00
2022-08-01T10:48:40.747Z,22.90
2022-08-01T10:51:19.186Z,22.90
2022-08-01T10:53:56.831Z,23.00
2022-08-01T10:56:44.176Z,23.10
2022-08-01T10:59:58.916Z,23.30
2022-08-01T11:02:32.521Z,23.30
2022-08-01T11:05:08.231Z,23.30
2022-08-01T11:07:47.040Z,23.30
2022-08-01T11:10:44.090Z,23.30
2022-08-01T11:13:55.705Z,23.10
2022-08-01T11:16:34.394Z,23.10
2022-08-01T11:19:09.757Z,23.00
2022-08-01T11:21:57.199Z,23.00
2022-08-01T11:24:50.857Z,23.00
2022-08-01T11:27:31.266Z,23.10
2022-08-01T11:30:12.947Z,23.20
2022-08-01T11:33:10.800Z,23.10
2022-08-01T11:36:11.572Z,23.10
2022-08-01T11:38:45.414Z,23.10
2022-08-01T11:41:37.984Z,23.10
2022-08-01T11:44:30.142Z,23.20
2022-08-01T11:47:09.305Z,23.20
2022-08-01T11:49:51.710Z,23.10
2022-08-01T11:52:28.133Z,22.90
2022-08-01T11:55:10.217Z,22.90
2022-08-01T11:57:43.315Z,23.00
2022-08-01T12:00:20.594Z,23.10
2022-08-01T12:03:07.638Z,23.10
2022-08-01T12:05:43.123Z,23.10
2022-08-01T12:08:29.196Z,23.00
2022-08-01T12:11:03.177Z,23.10
2022-08-01T12:13:43.213Z,23.10
2022-08-01T12:16:15.569Z,23.00
2022-08-01T12:18:48.048Z,23.00
2022-08-01T12:21:20.406Z,23.00
2022-08-01T12:24:02.932Z,22.80
2022-08-01T12:26:42.409Z,22.90
2022-08-01T12:29:42.370Z,23.00
2022-08-01T12:32:35.788Z,23.00
2022-08-01T12:35:18.273Z,22.90
2022-08-01T12:37:53.567Z,22.90
2022-08-01T12:40:43.303Z,23.00
2022-08-01T12:43:27.067Z,23.00
2022-08-01T12:46:05.664Z,23.00
2022-08-01T12:48:40.025Z,22.80
2022-08-01T12:51:14.661Z,22.70
2022-08-01T12:53:46.691Z,22.60
2022-08-01T12:56:31.779Z,22.50
2022-08-01T12:59:30.083Z,22.50
2022-08-01T13:02:12.335Z,22.40
2022-08-01T13:04:54.027Z,22.40
2022-08-01T13:07:45.873Z,22.30
2022-08-01T13:10:33.054Z,22.30
2022-08-01T13:13:05.231Z,22.30
2022-08-01T13:15:41.602Z,22.30
2022-08-01T13:18:31.290Z,22.40
2022-08-01T13:21:16.477Z,22.30
2022-08-01T13:24:14.372Z,22.20
2022-08-01T13:26:54.206Z,22.20
2022-08-01T13:29:39.081Z,22.00
2022-08-01T13:32:29.317Z,21.90
2022-08-01T13:35:06.831Z,21.90
2022-08-01T13:37:40.348Z,21.90
2022-08-01T13:40:12.714Z,21.90
2022-08-01T13:42:44.620Z,22.00
2022-08-01T13:45:16.910Z,21.90
2022-08-01T13:48:12.280Z,21.70
2022-08-01T13:50:53.409Z,21.60
2022-08-01T13:53:36.635Z,21.60
2022-08-01T13:56:12.024Z,21.70
2022-08-01T13:58:44.526Z,21.70
2022-08-01T14:01:16.651Z,21.70
2022-08-01T14:03:48.993Z,21.70
2022-08-01T14:06:23.433Z,21.70
2022-08-01T14:08:55.366Z,21.70
2022-08-01T14:11:28.490Z,21.80
2022-08-01T14:14:03.271Z,21.90
2022-08-01T14:16:35.409Z,21.90
2022-08-01T14:19:08.994Z,21.90
2022-08-01T14:21:40.915Z,22.20
2022-08-01T14:24:12.866Z,22.30
2022-08-01T14:26:44.895Z,22.40
2022-08-01T14:29:18.931Z,22.30
2022-08-01T14:31:50.792Z,22.30
2022-08-01T14:34:22.946Z,22.10
2022-08-01T14:36:55.483Z,22.00
2022-08-01T14:39:29.916Z,21.70
2022-08-01T14:42:01.938Z,21.70
2022-08-01T14:44:49.645Z,21.70
2022-08-01T14:47:22.619Z,21.60
2022-08-01T14:49:54.690Z,21.80
2022-08-01T14:52:29.020Z,21.80
2022-08-01T14:55:01.366Z,21.80
2022-08-01T14:57:36.306Z,21.80
2022-08-01T15:00:16.248Z,21.70
2022-08-01T15:02:48.283Z,21.80
2022-08-01T15:05:24.079Z,21.90
2022-08-01T15:07:56.134Z,21.90
2022-08-01T15:10:28.422Z,22.10
2022-08-01T15:13:02.506Z,22.00
2022-08-01T15:15:34.624Z,22.00
2022-08-01T15:18:06.585Z,22.00
2022-08-01T15:20:38.465Z,22.00
2022-08-01T15:23:12.912Z,21.90
2022-08-01T15:25:46.996Z,22.10
2022-08-01T15:28:18.953Z,22.20
2022-08-01T15:30:50.863Z,22.20
2022-08-01T15:33:22.806Z,22.10
2022-08-01T15:35:57.145Z,22.10
2022-08-01T15:38:29.335Z,22.20
2022-08-01T15:41:01.441Z,22.20
2022-08-01T15:43:33.468Z,22.30
2022-08-01T15:46:15.045Z,22.20
2022-08-01T15:48:46.909Z,22.30
2022-08-01T15:51:20.986Z,22.30
2022-08-01T15:53:52.851Z,22.30
2022-08-01T15:56:27.367Z,22.30
2022-08-01T15:58:59.461Z,22.30
2022-08-01T16:01:31.737Z,22.30
2022-08-01T16:04:04.029Z,22.30
2022-08-01T16:06:37.431Z,22.30
2022-08-01T16:09:09.985Z,22.30
2022-08-01T16:11:51.326Z,22.30
2022-08-01T16:14:23.367Z,22.20
2022-08-01T16:16:57.711Z,22.20
2022-08-01T16:19:29.604Z,22.20
2022-08-01T16:22:04.448Z,22.00
2022-08-01T16:24:39.038Z,22.10
2022-08-01T16:27:10.963Z,22.20
2022-08-01T16:29:42.877Z,22.00
2022-08-01T16:32:27.906Z,21.80
2022-08-01T16:35:06.707Z,21.70
2022-08-01T16:37:39.731Z,21.60
2022-08-01T16:40:11.949Z,21.70
2022-08-01T16:42:44.351Z,21.80
2022-08-01T16:45:17.855Z,21.80
2022-08-01T16:47:49.985Z,21.80
2022-08-01T16:50:28.603Z,21.90
2022-08-01T16:53:00.993Z,21.80
2022-08-01T16:55:49.391Z,21.80
2022-08-01T16:58:28.051Z,21.60
2022-08-01T17:01:56.202Z,21.40
2022-08-01T17:03:58.158Z,21.40
2022-08-01T17:06:33.407Z,21.40
2022-08-01T17:09:06.140Z,21.30
2022-08-01T17:11:38.172Z,21.20
2022-08-01T17:14:10.114Z,21.20
2022-08-01T17:16:42.554Z,21.10
2022-08-01T17:19:14.638Z,20.90
2022-08-01T17:21:47.312Z,20.80
2022-08-01T17:24:19.780Z,20.70
2022-08-01T17:26:51.714Z,20.60
2022-08-01T17:29:27.409Z,20.60
2022-08-01T17:31:59.354Z,20.60
2022-08-01T17:34:31.265Z,20.50
2022-08-01T17:37:03.311Z,20.40
2022-08-01T17:39:38.531Z,20.40
2022-08-01T17:42:13.702Z,20.40
2022-08-01T17:44:49.134Z,20.20
2022-08-01T17:47:49.382Z,20.10
2022-08-01T17:50:16.795Z,20.10
2022-08-01T17:52:48.994Z,20.00
2022-08-01T17:55:53.527Z,19.90
2022-08-01T17:58:17.666Z,19.90
2022-08-01T18:01:09.746Z,19.80
2022-08-01T18:03:42.637Z,19.70
2022-08-01T18:06:19.249Z,19.70
2022-08-01T18:08:53.128Z,19.60
2022-08-01T18:11:27.966Z,19.60
2022-08-01T18:14:02.326Z,19.50
2022-08-01T18:16:34.387Z,19.40
2022-08-01T18:19:08.784Z,19.40
2022-08-01T18:21:42.983Z,19.30
2022-08-01T18:24:18.338Z,19.20
2022-08-01T18:26:51.704Z,19.10
2022-08-01T18:29:46.012Z,19.10
2022-08-01T18:32:16.155Z,19.00
2022-08-01T18:34:48.077Z,18.90
2022-08-01T18:37:20.034Z,18.80
2022-08-01T18:39:53.967Z,18.80
2022-08-01T18:42:26.686Z,18.70
2022-08-01T18:44:58.586Z,18.70
2022-08-01T18:47:32.649Z,18.70
2022-08-01T18:50:05.310Z,18.60
2022-08-01T18:52:37.409Z,18.60
2022-08-01T18:55:10.170Z,18.50
2022-08-01T18:57:42.776Z,18.50
2022-08-01T19:00:15.337Z,18.40
2022-08-01T19:02:47.365Z,18.40
2022-08-01T19:05:19.328Z,18.30
2022-08-01T19:08:05.247Z,18.30
2022-08-01T19:10:43.092Z,18.20
2022-08-01T19:13:16.795Z,18.20
2022-08-01T19:15:50.884Z,18.10
2022-08-01T19:18:24.426Z,18.10
2022-08-01T19:20:56.386Z,18.10
2022-08-01T19:23:47.126Z,18.10
2022-08-01T19:26:29.582Z,18.00
2022-08-01T19:29:19.765Z,18.00
2022-08-01T19:31:57.005Z,17.90
2022-08-01T19:34:29.796Z,17.90
2022-08-01T19:37:01.685Z,17.80
2022-08-01T19:39:33.694Z,17.80
2022-08-01T19:42:05.813Z,17.70
2022-08-01T19:44:38.669Z,17.70
2022-08-01T19:47:10.935Z,17.60
2022-08-01T19:49:42.990Z,17.60
2022-08-01T19:52:19.252Z,17.50
2022-08-01T19:54:53.452Z,17.50
2022-08-01T19:57:28.586Z,17.40
2022-08-01T20:00:27.877Z,17.40
2022-08-01T20:03:01.040Z,17.40
2022-08-01T20:05:35.324Z,17.30
2022-08-01T20:08:09.132Z,17.30
2022-08-01T20:10:41.427Z,17.20
2022-08-01T20:13:13.916Z,17.20
2022-08-01T20:15:49.093Z,17.20
2022-08-01T20:18:26.925Z,17.10
2022-08-01T20:21:01.210Z,17.10
2022-08-01T20:23:38.105Z,17.10
2022-08-01T20:26:10.776Z,17.00
2022-08-01T20:28:47.243Z,17.00
2022-08-01T20:31:23.340Z,17.00
2022-08-01T20:33:59.121Z,17.00
2022-08-01T20:36:30.996Z,16.90
2022-08-01T20:39:05.384Z,16.90
2022-08-01T20:41:42.620Z,16.90
2022-08-01T20:44:20.734Z,16.80
2022-08-01T20:46:56.820Z,16.80
2022-08-01T20:49:29.881Z,16.80
2022-08-01T20:52:12.147Z,16.70
2022-08-01T20:54:45.235Z,16.70
2022-08-01T20:57:25.522Z,16.60
2022-08-01T21:00:06.504Z,16.60
2022-08-01T21:02:49.071Z,16.50
2022-08-01T21:05:29.434Z,16.50
2022-08-01T21:08:12.965Z,16.50
2022-08-01T21:10:46.325Z,16.40
2022-08-01T21:13:38.523Z,16.40
2022-08-01T21:16:23.758Z,16.40
2022-08-01T21:19:19.200Z,16.40
2022-08-01T21:22:10.217Z,16.40
2022-08-01T21:25:07.784Z,16.40
2022-08-01T21:27:46.355Z,16.40
2022-08-01T21:30:19.086Z,16.40
2022-08-01T21:32:52.144Z,16.40
2022-08-01T21:35:29.173Z,16.50
2022-08-01T21:38:05.623Z,16.60
2022-08-01T21:40:37.977Z,16.60
2022-08-01T21:43:14.894Z,16.70
2022-08-01T21:45:57.927Z,16.70
2022-08-01T21:48:34.991Z,16.70
2022-08-01T21:51:29.831Z,16.70
2022-08-01T21:54:21.238Z,16.80
2022-08-01T21:57:07.860Z,16.80
2022-08-01T21:59:54.921Z,16.80
2022-08-01T22:03:00.431Z,16.90
2022-08-01T22:05:49.885Z,16.90
2022-08-01T22:08:36.050Z,16.90
2022-08-01T22:11:11.951Z,16.90
2022-08-01T22:13:43.825Z,16.90
2022-08-01T22:16:16.010Z,16.90
2022-08-01T22:18:49.393Z,16.90
2022-08-01T22:21:24.722Z,16.90
2022-08-01T22:23:59.804Z,16.90
2022-08-01T22:26:38.019Z,16.90
2022-08-01T22:29:10.566Z,16.90
2022-08-01T22:31:42.596Z,16.90
2022-08-01T22:34:17.739Z,16.90
2022-08-01T22:36:52.061Z,16.90
2022-08-01T22:39:26.538Z,16.90
2022-08-01T22:42:02.590Z,16.90
2022-08-01T22:45:18.775Z,16.90
2022-08-01T22:48:26.249Z,16.90
2022-08-01T22:51:14.856Z,16.90
2022-08-01T22:54:02.347Z,16.90
2022-08-01T22:56:42.175Z,16.90
2022-08-01T22:59:42.638Z,16.90
2022-08-01T23:02:17.497Z,16.90
2022-08-01T23:04:54.455Z,16.90
2022-08-01T23:07:32.744Z,16.90
2022-08-01T23:10:08.320Z,16.90
2022-08-01T23:12:44.496Z,17.00
2022-08-01T23:15:16.945Z,16.90
2022-08-01T23:17:49.870Z,16.90
2022-08-01T23:20:22.501Z,16.90
2022-08-01T23:22:55.793Z,16.90
2022-08-01T23:25:28.092Z,16.90
2022-08-01T23:28:05.536Z,16.90
2022-08-01T23:30:38.096Z,16.90
2022-08-01T23:33:15.230Z,16.90
2022-08-01T23:35:47.231Z,16.90
2022-08-01T23:38:20.412Z,16.90
2022-08-01T23:40:52.826Z,16.90
2022-08-01T23:43:27.134Z,16.90
2022-08-01T23:46:04.998Z,16.90
2022-08-01T23:48:38.687Z,16.90
2022-08-01T23:51:17.289Z,16.90
2022-08-01T23:53:59.499Z,16.90
2022-08-01T23:56:33.136Z,16.90
2022-08-01T23:59:05.402Z,16.90
